Time;durP1;ratioP1;P1;durP2;ratioP2;P2;SDS_P1;SDS_P2;PMS_P1;PMS_P2;Temp;Humidity;BMP_temperature;BMP_pressure;BME280_temperature;BME280_humidity;BME280_pressure;Samples;Min_cycle;Max_cycle;Signal;HPM_P1;HPM_P2
2022/10/21 00:01:16;;;;;;;;;1.00;1.00;;;;;19.74;75.79;-19734.94;4985663;27;46467;-82
2022/10/21 00:03:43;;;;;;;;;1.00;1.00;;;;;19.65;76.15;-19732.53;4993294;27;45379;-82
2022/10/21 00:06:09;;;;;;;;;1.00;1.00;;;;;19.75;76.52;-19735.22;4986271;27;45467;-82
2022/10/21 00:08:35;;;;;;;;;1.00;1.00;;;;;19.59;76.38;-19731.06;4991968;27;45549;-82
2022/10/21 00:11:02;;;;;;;;;1.00;1.00;;;;;19.71;75.55;-19734.28;4993134;28;46085;-82
2022/10/21 00:13:30;;;;;;;;;0.67;0.00;;;;;19.74;76.32;-19735.06;4992237;28;45588;-82
2022/10/21 00:16:00;;;;;;;;;0.67;0.67;;;;;19.80;75.83;-19736.69;4990690;27;45544;-82
2022/10/21 00:18:26;;;;;;;;;1.00;1.00;;;;;19.77;76.17;-19735.88;4988706;27;45489;-82
2022/10/21 00:20:51;;;;;;;;;1.67;0.67;;;;;19.81;75.62;-19736.94;4994685;27;45956;-82
2022/10/21 00:23:16;;;;;;;;;0.00;0.00;;;;;19.82;75.64;-19737.22;4993353;27;45228;-83
2022/10/21 00:25:42;;;;;;;;;1.00;1.00;;;;;19.73;76.21;-19734.81;4983963;27;45266;-82
2022/10/21 00:28:07;;;;;;;;;2.00;0.00;;;;;19.84;76.29;-19737.47;4985771;28;45463;-82
2022/10/21 00:30:33;;;;;;;;;1.00;1.00;;;;;19.52;75.90;-19729.34;4991167;27;45309;-82
2022/10/21 00:32:58;;;;;;;;;3.33;1.00;;;;;19.65;75.85;-19732.53;4983914;27;45334;-81
2022/10/21 00:35:23;;;;;;;;;1.00;1.00;;;;;19.54;75.68;-19729.88;4993514;27;45515;-82
2022/10/21 00:37:48;;;;;;;;;1.00;1.00;;;;;19.89;75.59;-19738.94;4987393;27;45684;-82
2022/10/21 00:40:14;;;;;;;;;2.00;1.00;;;;;19.89;76.18;-19738.94;4986402;27;47419;-82
2022/10/21 00:42:40;;;;;;;;;2.33;1.00;;;;;19.89;75.65;-19738.94;4985165;27;45302;-82
2022/10/21 00:45:05;;;;;;;;;0.00;0.00;;;;;19.90;75.61;-19739.22;4972940;28;45399;-82
2022/10/21 00:47:45;;;;;;;;;0.33;0.33;;;;;19.87;76.16;-19738.28;4987411;28;45616;-82
2022/10/21 00:50:32;;;;;;;;;1.00;1.00;;;;;19.88;76.15;-19738.69;4993954;28;45563;-82
2022/10/21 00:53:00;;;;;;;;;1.00;1.00;;;;;19.67;75.66;-19733.19;4992599;27;45551;-82
2022/10/21 00:55:31;;;;;;;;;2.00;0.00;;;;;19.78;76.30;-19736.16;4977375;28;45465;-82
2022/10/21 00:57:56;;;;;;;;;0.00;0.00;;;;;19.61;76.11;-19731.59;4991850;27;45450;-82
2022/10/21 01:00:22;;;;;;;;;0.50;0.50;;;;;19.81;76.13;-19736.94;4991251;28;45381;-82
2022/10/21 01:02:47;;;;;;;;;0.33;0.33;;;;;19.62;76.24;-19731.88;4979230;27;45430;-81
2022/10/21 01:05:14;;;;;;;;;1.00;1.00;;;;;19.57;76.20;-19730.66;4979064;27;45606;-81
2022/10/21 01:07:40;;;;;;;;;1.00;1.00;;;;;19.90;76.15;-19739.06;4988073;27;45694;-82
2022/10/21 01:10:06;;;;;;;;;1.00;1.00;;;;;19.88;76.18;-19738.69;4984143;28;45929;-82
2022/10/21 01:12:40;;;;;;;;;1.00;1.00;;;;;19.90;76.25;-19739.06;4987988;28;45360;-82
2022/10/21 01:15:17;;;;;;;;;1.00;0.67;;;;;19.91;76.19;-19739.47;4990815;27;45504;-81
2022/10/21 01:17:51;;;;;;;;;0.67;0.67;;;;;19.93;76.15;-19740.00;4990355;28;45609;-82
2022/10/21 01:20:30;;;;;;;;;2.00;1.00;;;;;19.95;76.25;-19740.53;4985429;27;45681;-82
2022/10/21 01:23:06;;;;;;;;;0.33;0.33;;;;;19.96;75.84;-19740.81;4991897;28;46573;-82
2022/10/21 01:25:52;;;;;;;;;1.00;1.00;;;;;19.88;76.31;-19738.69;4983158;27;45441;-82
2022/10/21 01:28:33;;;;;;;;;1.00;1.00;;;;;19.97;75.69;-19740.94;4986859;27;45426;-82
2022/10/21 01:31:21;;;;;;;;;1.33;1.00;;;;;19.87;76.01;-19738.41;4998149;27;46671;-82
2022/10/21 01:34:15;;;;;;;;;1.33;1.00;;;;;19.98;75.78;-19741.22;4995657;27;45435;-82
2022/10/21 01:36:49;;;;;;;;;1.33;1.00;;;;;19.79;75.76;-19736.41;4996850;27;45853;-82
2022/10/21 01:39:32;;;;;;;;;0.67;0.67;;;;;20.01;76.31;-19742.00;4995053;27;45548;-82
2022/10/21 01:42:05;;;;;;;;;1.33;0.67;;;;;20.03;75.79;-19742.69;4994376;27;46262;-82
2022/10/21 01:44:41;;;;;;;;;1.00;1.00;;;;;20.03;75.84;-19742.69;4978185;27;45416;-82
2022/10/21 01:47:10;;;;;;;;;3.00;1.00;;;;;20.05;76.24;-19743.06;4989469;27;45479;-82
2022/10/21 01:49:42;;;;;;;;;1.00;1.00;;;;;20.04;76.55;-19742.81;4984276;27;45521;-82
2022/10/21 01:52:10;;;;;;;;;1.33;1.33;;;;;20.02;76.24;-19742.28;4988405;27;46111;-82
2022/10/21 01:54:40;;;;;;;;;2.00;2.00;;;;;20.06;76.46;-19743.22;4991675;27;45394;-83
2022/10/21 01:57:07;;;;;;;;;2.00;1.00;;;;;19.98;77.21;-19741.22;4974729;28;45402;-82
2022/10/21 01:59:34;;;;;;;;;3.00;1.00;;;;;19.90;77.24;-19739.06;4986932;27;45474;-83
2022/10/21 02:02:03;;;;;;;;;2.33;1.33;;;;;20.02;77.42;-19742.28;4990788;27;45274;-77
2022/10/21 02:04:32;;;;;;;;;1.00;1.00;;;;;19.78;79.31;-19736.16;4992292;27;45525;-77
2022/10/21 02:06:57;;;;;;;;;3.67;2.00;;;;;19.75;80.38;-19735.22;4997861;27;45538;-77
2022/10/21 02:09:23;;;;;;;;;1.00;1.00;;;;;19.72;80.90;-19734.53;4994156;27;45425;-78
2022/10/21 02:11:52;;;;;;;;;2.67;2.67;;;;;19.74;81.19;-19734.94;4991710;27;47879;-78
2022/10/21 02:14:44;;;;;;;;;2.00;1.67;;;;;19.73;82.82;-19734.81;4987821;27;45622;-77
2022/10/21 02:17:14;;;;;;;;;4.67;2.67;;;;;19.45;85.19;-19727.47;4989241;27;45437;-76
2022/10/21 02:19:39;;;;;;;;;2.00;2.00;;;;;19.43;93.85;-11967.56;4964464;27;45495;-77
2022/10/21 02:22:09;;;;;;;;;5.00;2.00;;;;;19.01;92.72;-13266.34;4995450;27;45838;-78
2022/10/21 02:24:34;;;;;;;;;2.00;2.00;;;;;19.23;96.67;-6325.09;4992545;27;45361;-77
2022/10/21 02:26:59;;;;;;;;;0.00;0.00;;;;;19.00;96.55;-10601.66;4975545;27;45436;-77
2022/10/21 02:29:31;;;;;;;;;3.00;2.00;;;;;18.81;98.11;-9693.56;4986328;27;45530;-78
2022/10/21 02:32:20;;;;;;;;;3.00;2.33;;;;;18.88;99.00;-9268.84;4979540;27;46268;-78
2022/10/21 02:34:55;;;;;;;;;2.00;2.00;;;;;18.84;100.00;-10064.19;4984842;27;45242;-78
2022/10/21 02:37:39;;;;;;;;;2.00;2.00;;;;;18.63;100.00;-9355.72;4992500;27;45403;-78
2022/10/21 02:40:14;;;;;;;;;2.00;2.00;;;;;18.73;100.00;-10532.88;4990158;27;45399;-78
2022/10/21 02:42:46;;;;;;;;;6.33;3.00;;;;;18.95;100.00;-11105.19;4991543;27;45287;-78
2022/10/21 02:45:15;;;;;;;;;2.67;1.33;;;;;18.97;100.00;-11956.09;5007722;27;45555;-78
2022/10/21 02:47:42;;;;;;;;;1.00;1.00;;;;;18.93;100.00;-12664.19;5006174;27;45479;-79
2022/10/21 02:50:07;;;;;;;;;2.00;2.00;;;;;18.96;100.00;-13000.56;5047261;27;45519;-78
2022/10/21 02:52:33;;;;;;;;;0.67;0.67;;;;;19.10;100.00;-13916.03;4966819;28;48706;-79
2022/10/21 02:54:58;;;;;;;;;3.67;2.00;;;;;19.15;100.00;-14683.16;5009290;27;45607;-78
2022/10/21 02:57:23;;;;;;;;;2.67;2.00;;;;;18.79;100.00;-15012.25;4990884;27;45528;-78
2022/10/21 02:59:49;;;;;;;;;2.00;1.00;;;;;19.13;99.38;-15679.72;4994279;27;45457;-78
2022/10/21 03:02:14;;;;;;;;;2.33;1.33;;;;;19.28;99.17;-16228.34;4985625;27;45480;-78
2022/10/21 03:04:39;;;;;;;;;2.00;2.00;;;;;19.31;98.31;-17708.34;4996904;27;45414;-78
2022/10/21 03:07:05;;;;;;;;;2.00;2.00;;;;;18.98;98.14;-18036.34;5006805;27;45417;-77
2022/10/21 03:09:30;;;;;;;;;1.33;1.33;;;;;19.35;97.94;-18380.50;4989683;27;45389;-78
2022/10/21 03:11:56;;;;;;;;;1.00;1.00;;;;;19.34;96.30;-18343.69;4989676;27;47182;-80
2022/10/21 03:14:21;;;;;;;;;2.33;0.67;;;;;19.37;95.54;-19372.09;4997190;27;45369;-76
2022/10/21 03:16:46;;;;;;;;;3.67;1.33;;;;;19.38;95.32;-19367.09;4995199;27;45442;-76
2022/10/21 03:19:12;;;;;;;;;2.00;1.00;;;;;19.49;94.87;-18664.56;4978581;28;45606;-77
2022/10/21 03:21:37;;;;;;;;;2.33;2.00;;;;;19.36;94.17;-19196.19;4994858;27;46181;-76
2022/10/21 03:24:03;;;;;;;;;4.00;2.00;;;;;19.42;93.43;-19339.19;4984057;27;45711;-76
2022/10/21 03:26:28;;;;;;;;;3.00;2.00;;;;;19.51;93.15;-19585.38;4989303;27;46019;-76
2022/10/21 03:28:53;;;;;;;;;1.00;1.00;;;;;19.34;93.48;-19724.66;4987840;27;45437;-75
2022/10/21 03:31:19;;;;;;;;;2.00;2.00;;;;;19.43;93.27;-19601.75;5006074;28;47722;-76
2022/10/21 03:33:44;;;;;;;;;4.33;1.00;;;;;19.43;92.90;-19620.09;4987812;27;45520;-76
2022/10/21 03:36:10;;;;;;;;;2.33;2.00;;;;;19.28;93.46;-19722.94;4994791;27;45295;-76
2022/10/21 03:38:35;;;;;;;;;2.00;2.00;;;;;19.25;94.07;-19722.25;4984825;27;45405;-76
2022/10/21 03:41:00;;;;;;;;;2.00;2.00;;;;;19.24;94.58;-19722.00;4987557;28;46182;-76
2022/10/21 03:43:26;;;;;;;;;1.33;1.33;;;;;19.10;94.67;-19718.25;4973056;28;45304;-76
2022/10/21 03:45:51;;;;;;;;;2.00;1.00;;;;;19.07;94.93;-19717.44;4991757;27;45239;-77
2022/10/21 03:48:17;;;;;;;;;2.00;2.00;;;;;19.00;95.02;-19715.72;4996880;27;45363;-77
2022/10/21 03:50:42;;;;;;;;;1.33;1.00;;;;;18.98;94.58;-19715.19;4981790;27;45313;-76
2022/10/21 03:53:08;;;;;;;;;1.00;1.00;;;;;19.17;95.38;-19453.59;5012144;27;45302;-76
2022/10/21 03:55:33;;;;;;;;;3.00;2.00;;;;;19.35;94.44;-19481.78;4999366;27;45444;-76
2022/10/21 03:57:58;;;;;;;;;2.00;2.00;;;;;19.24;94.80;-19722.00;4973150;28;45638;-76
2022/10/21 04:00:24;;;;;;;;;4.00;2.00;;;;;19.21;95.11;-19721.19;5059166;28;46048;-76
2022/10/21 04:02:49;;;;;;;;;2.00;2.00;;;;;19.16;94.13;-19720.00;4988781;27;45344;-77
2022/10/21 04:05:15;;;;;;;;;3.33;2.00;;;;;18.93;94.63;-19713.84;4994844;27;45926;-76
2022/10/21 04:07:40;;;;;;;;;2.33;1.00;;;;;19.13;94.58;-19719.06;4994592;27;45586;-76
2022/10/21 04:10:07;;;;;;;;;2.00;2.00;;;;;18.75;95.00;-19709.16;4991485;28;45415;-76
2022/10/21 04:12:32;;;;;;;;;2.00;2.00;;;;;19.09;94.96;-19718.00;4990358;28;45514;-76
2022/10/21 04:14:58;;;;;;;;;3.33;2.00;;;;;19.07;95.45;-19717.59;4994315;27;45428;-77
2022/10/21 04:17:23;;;;;;;;;1.67;1.67;;;;;18.93;94.59;-19713.97;4989955;27;45578;-76
2022/10/21 04:19:49;;;;;;;;;2.00;1.67;;;;;19.04;94.87;-19716.78;4986179;27;47067;-76
2022/10/21 04:22:14;;;;;;;;;3.00;3.00;;;;;18.87;94.80;-19712.25;4987177;27;45388;-76
2022/10/21 04:24:39;;;;;;;;;2.00;2.00;;;;;19.08;94.93;-19717.72;4989983;27;46004;-76
2022/10/21 04:27:05;;;;;;;;;3.67;2.00;;;;;19.07;95.15;-19717.59;4993640;27;45453;-76
2022/10/21 04:29:30;;;;;;;;;3.67;2.00;;;;;19.02;94.74;-19716.13;4994108;27;45622;-76
2022/10/21 04:31:56;;;;;;;;;2.00;2.00;;;;;19.03;95.28;-19716.38;4966724;27;46358;-76
2022/10/21 04:34:21;;;;;;;;;3.33;2.00;;;;;19.01;94.98;-19715.84;4988257;27;45302;-76
2022/10/21 04:36:46;;;;;;;;;4.33;2.67;;;;;18.93;95.43;-19713.84;4987577;28;45473;-76
2022/10/21 04:39:12;;;;;;;;;2.00;2.00;;;;;18.93;95.47;-19713.84;5010895;27;46119;-76
2022/10/21 04:41:37;;;;;;;;;3.00;3.00;;;;;19.06;94.81;-19717.31;4991195;27;45398;-76
2022/10/21 04:44:03;;;;;;;;;5.33;4.00;;;;;18.67;95.60;-19707.16;4994003;27;45398;-77
2022/10/21 04:46:28;;;;;;;;;6.00;3.00;;;;;19.09;95.41;-19718.00;4978870;27;45783;-76
2022/10/21 04:48:54;;;;;;;;;4.00;4.00;;;;;18.97;95.44;-19715.06;4978297;27;45943;-76
2022/10/21 04:51:19;;;;;;;;;1.67;0.67;;;;;19.12;94.70;-19718.91;4986022;27;45313;-76
2022/10/21 04:53:45;;;;;;;;;4.00;3.00;;;;;19.03;94.84;-19716.38;4988339;27;45465;-76
2022/10/21 04:56:10;;;;;;;;;3.00;3.00;;;;;19.18;95.52;-19720.53;4993675;27;45414;-76
2022/10/21 04:58:35;;;;;;;;;3.00;3.00;;;;;19.23;95.62;-19721.72;4994056;28;46190;-76
2022/10/21 05:01:01;;;;;;;;;1.67;0.67;;;;;19.13;94.97;-19719.06;4982662;28;46722;-76
2022/10/21 05:03:26;;;;;;;;;2.00;2.00;;;;;19.27;94.98;-19722.78;4986233;28;45398;-77
2022/10/21 05:05:52;;;;;;;;;3.00;3.00;;;;;19.31;95.30;-19723.72;4975010;28;45474;-76
2022/10/21 05:08:18;;;;;;;;;4.33;3.00;;;;;19.34;94.40;-19724.53;4972405;28;47277;-76
2022/10/21 05:10:44;;;;;;;;;3.00;3.00;;;;;19.37;94.38;-19725.47;4989391;27;45372;-76
2022/10/21 05:13:09;;;;;;;;;3.00;3.00;;;;;19.42;94.80;-19726.53;4985957;28;45392;-76
2022/10/21 05:15:34;;;;;;;;;4.33;3.00;;;;;19.25;95.19;-19722.13;4990635;27;45376;-77
2022/10/21 05:18:00;;;;;;;;;4.67;2.67;;;;;19.50;94.45;-19728.66;4995082;28;45421;-75
2022/10/21 05:20:25;;;;;;;;;3.00;3.00;;;;;19.53;94.83;-19729.59;4998686;27;45539;-76
2022/10/21 05:22:51;;;;;;;;;3.00;3.00;;;;;19.56;94.43;-19730.28;4974318;27;45334;-74
2022/10/21 05:25:17;;;;;;;;;4.00;3.00;;;;;19.51;94.09;-19728.94;4992367;27;45235;-75
2022/10/21 05:27:43;;;;;;;;;2.33;2.33;;;;;19.35;93.67;-19724.94;4993843;28;47585;-76
2022/10/21 05:30:08;;;;;;;;;4.00;3.00;;;;;19.59;94.27;-19731.19;4990953;27;45314;-76
2022/10/21 05:32:34;;;;;;;;;2.33;2.33;;;;;19.45;93.90;-19727.47;4973332;28;45629;-76
2022/10/21 05:34:59;;;;;;;;;3.00;2.00;;;;;19.59;93.24;-19731.19;4986150;27;45520;-76
2022/10/21 05:37:25;;;;;;;;;3.33;3.00;;;;;19.57;93.26;-19730.66;4983067;27;46198;-77
2022/10/21 05:39:50;;;;;;;;;4.33;2.67;;;;;19.57;92.94;-19730.53;4992980;27;45507;-77
2022/10/21 05:42:15;;;;;;;;;3.00;3.00;;;;;19.58;93.16;-19730.81;4982754;27;45480;-76
2022/10/21 05:44:41;;;;;;;;;2.00;2.00;;;;;19.41;93.11;-19726.41;4987130;28;45468;-76
2022/10/21 05:47:06;;;;;;;;;3.67;2.67;;;;;19.37;92.87;-19725.34;4969359;27;46119;-76
2022/10/21 05:49:32;;;;;;;;;3.33;2.67;;;;;19.33;93.15;-19724.25;4994805;27;45531;-76
2022/10/21 05:51:57;;;;;;;;;3.33;3.00;;;;;19.56;92.90;-19730.41;4987489;28;45608;-76
2022/10/21 05:54:22;;;;;;;;;3.67;2.33;;;;;19.59;93.53;-19731.06;4985564;27;45460;-76
2022/10/21 05:56:48;;;;;;;;;10.00;4.33;;;;;19.42;93.37;-19726.53;4981364;28;46040;-76
2022/10/21 05:59:14;;;;;;;;;3.00;3.00;;;;;19.56;93.08;-19730.41;4991516;27;45465;-78
2022/10/21 06:01:39;;;;;;;;;3.33;3.33;;;;;19.56;92.52;-19730.41;4988949;27;45472;-75
2022/10/21 06:04:05;;;;;;;;;3.00;2.00;;;;;19.57;92.31;-19730.53;4988722;27;45421;-75
2022/10/21 06:06:31;;;;;;;;;2.67;2.67;;;;;19.57;92.54;-19730.53;4986019;27;47269;-77
2022/10/21 06:08:56;;;;;;;;;1.33;1.33;;;;;19.51;92.86;-19729.06;5039144;28;45465;-76
2022/10/21 06:11:22;;;;;;;;;2.00;2.00;;;;;19.54;92.88;-19729.72;5048939;27;45598;-76
2022/10/21 06:13:47;;;;;;;;;3.67;3.00;;;;;19.27;91.73;-19722.66;5013541;27;45302;-76
2022/10/21 06:16:13;;;;;;;;;2.33;2.33;;;;;19.49;91.88;-19728.41;5020479;27;49014;-76
2022/10/21 06:18:39;;;;;;;;;1.00;1.00;;;;;19.49;91.84;-19728.53;4964760;27;45757;-76
2022/10/21 06:21:05;;;;;;;;;2.00;1.00;;;;;19.36;91.63;-19725.06;4998146;27;45526;-76
2022/10/21 06:23:31;;;;;;;;;1.00;1.00;;;;;19.34;91.88;-19724.66;5069977;27;45413;-75
2022/10/21 06:26:03;;;;;;;;;2.00;1.67;;;;;19.43;91.92;-19726.94;5032863;27;46140;-75
2022/10/21 06:28:31;;;;;;;;;0.67;0.33;;;;;19.42;94.13;-19726.66;4987049;27;45284;-81
2022/10/21 06:30:56;;;;;;;;;1.00;1.00;;;;;19.37;95.01;-19725.47;5013567;27;45375;-78
2022/10/21 06:33:22;;;;;;;;;2.00;2.00;;;;;19.37;95.22;-19725.47;4993252;27;45622;-78
2022/10/21 06:35:48;;;;;;;;;1.00;1.00;;;;;19.34;93.75;-19724.53;5027842;27;46027;-76
2022/10/21 06:38:14;;;;;;;;;0.33;0.33;;;;;19.33;93.72;-19724.25;5010744;27;45509;-76
2022/10/21 06:40:40;;;;;;;;;2.67;1.67;;;;;19.35;94.14;-19724.94;5007809;27;45420;-74
2022/10/21 06:43:06;;;;;;;;;1.00;1.00;;;;;19.14;100.00;-19719.47;4992760;27;45562;-74
2022/10/21 06:45:31;;;;;;;;;1.00;1.00;;;;;19.31;100.00;-19723.72;5013859;27;46135;-77
2022/10/21 06:47:57;;;;;;;;;4.00;2.00;;;;;19.24;97.96;-19721.84;5023908;27;45391;-78
2022/10/21 06:50:22;;;;;;;;;4.00;2.00;;;;;19.28;97.46;-19722.94;4985007;27;45492;-80
2022/10/21 06:52:49;;;;;;;;;0.33;0.33;;;;;19.30;96.30;-19723.59;4995715;27;45452;-80
2022/10/21 06:55:15;;;;;;;;;2.00;2.00;;;;;19.22;95.23;-19721.31;4986258;28;47249;-79
2022/10/21 06:57:41;;;;;;;;;1.00;1.00;;;;;19.05;95.65;-19717.06;5040363;27;45401;-78
2022/10/21 07:00:07;;;;;;;;;1.00;1.00;;;;;19.20;95.22;-19720.94;4987701;27;45991;-86
2022/10/21 07:02:33;;;;;;;;;0.33;0.33;;;;;19.19;95.09;-19720.66;5057680;27;45518;-85
2022/10/21 07:04:58;;;;;;;;;2.00;0.67;;;;;19.21;95.54;-19721.06;4997293;27;45551;-87
2022/10/21 07:07:24;;;;;;;;;4.00;2.00;;;;;19.23;95.01;-19721.72;5028306;27;45602;-88
2022/10/21 07:09:49;;;;;;;;;1.00;1.00;;;;;19.24;95.11;-19721.84;5027171;27;45352;-80
2022/10/21 07:12:15;;;;;;;;;2.00;1.33;;;;;19.06;94.74;-19717.31;5010417;27;45593;-78
2022/10/21 07:14:40;;;;;;;;;1.67;1.67;;;;;19.23;94.17;-19721.72;5006363;27;45519;-85
2022/10/21 07:17:05;;;;;;;;;1.00;1.00;;;;;19.09;94.91;-19718.00;4979847;27;45373;-85
2022/10/21 07:19:31;;;;;;;;;1.67;1.00;;;;;19.26;95.01;-19722.41;5001759;27;46002;-79
2022/10/21 07:21:57;;;;;;;;;1.00;1.00;;;;;19.21;95.21;-19721.06;4988281;27;45481;-85
2022/10/21 07:24:22;;;;;;;;;2.00;2.00;;;;;19.17;94.75;-19720.25;4993984;27;45334;-76
2022/10/21 07:26:48;;;;;;;;;2.00;2.00;;;;;19.24;94.46;-19721.84;4988312;27;45564;-77
2022/10/21 07:29:13;;;;;;;;;3.00;1.33;;;;;19.19;94.67;-19720.66;5037564;27;45401;-84
2022/10/21 07:31:39;;;;;;;;;2.67;1.33;;;;;19.28;94.63;-19723.06;5002500;27;45621;-75
2022/10/21 07:34:07;;;;;;;;;3.00;1.00;;;;;19.27;94.92;-19722.66;5002595;27;45507;-74
2022/10/21 07:36:35;;;;;;;;;1.25;1.25;;;;;19.32;94.17;-19724.00;4982498;27;45512;-77
2022/10/21 07:39:04;;;;;;;;;1.33;1.33;;;;;19.35;93.46;-19724.94;4991093;27;45431;-76
2022/10/21 07:41:38;;;;;;;;;1.00;1.00;;;;;19.39;95.24;-19726.00;5023854;27;45376;-80
2022/10/21 07:44:04;;;;;;;;;1.00;1.00;;;;;19.42;94.45;-19726.66;4999204;27;46918;-77
2022/10/21 07:46:30;;;;;;;;;1.67;1.00;;;;;19.51;94.28;-19729.06;5004980;27;45545;-77
2022/10/21 07:48:56;;;;;;;;;1.00;1.00;;;;;19.53;93.68;-19729.47;5010647;27;45505;-78
2022/10/21 07:51:24;;;;;;;;;1.33;1.33;;;;;19.52;93.77;-19729.19;4981178;27;45317;-77
2022/10/21 07:53:52;;;;;;;;;1.00;1.00;;;;;19.54;93.65;-19729.88;4979568;27;45516;-77
2022/10/21 07:56:20;;;;;;;;;3.00;2.00;;;;;19.44;93.67;-19727.06;4988932;27;45465;-77
2022/10/21 07:58:46;;;;;;;;;1.33;1.33;;;;;19.52;93.40;-19729.19;4982687;27;45485;-78
2022/10/21 08:01:12;;;;;;;;;2.67;1.00;;;;;19.40;92.89;-19726.25;4979002;27;45412;-76
2022/10/21 08:03:38;;;;;;;;;3.67;3.67;;;;;19.58;94.34;-19730.94;4975038;27;45324;-77
2022/10/21 08:06:05;;;;;;;;;1.67;1.67;;;;;19.66;93.30;-19732.81;4979166;28;45314;-77
2022/10/21 08:08:32;;;;;;;;;0.33;0.33;;;;;19.65;92.69;-19732.66;4979697;27;45342;-76
2022/10/21 08:10:57;;;;;;;;;3.00;2.00;;;;;19.71;93.56;-19734.28;4987959;27;45337;-76
2022/10/21 08:13:23;;;;;;;;;1.00;1.00;;;;;19.78;93.39;-19736.00;4970919;28;47226;-76
2022/10/21 08:15:52;;;;;;;;;1.00;1.00;;;;;19.85;92.93;-19737.88;4979960;28;45488;-75
2022/10/21 08:18:18;;;;;;;;;1.00;1.00;;;;;19.70;93.36;-19734.00;4974835;28;45381;-75
2022/10/21 08:20:45;;;;;;;;;2.00;2.00;;;;;19.87;92.95;-19738.28;4975465;28;45500;-76
2022/10/21 08:23:12;;;;;;;;;2.00;1.00;;;;;19.98;92.27;-19741.22;4976777;27;46274;-76
2022/10/21 08:25:39;;;;;;;;;5.33;3.00;;;;;20.13;92.31;-19745.22;4974953;27;45346;-77
2022/10/21 08:28:05;;;;;;;;;2.00;2.00;;;;;20.23;92.65;-19747.88;4987599;27;45483;-76
2022/10/21 08:30:31;;;;;;;;;1.75;1.75;;;;;20.47;92.40;-19754.00;4994803;27;45384;-78
2022/10/21 08:32:58;;;;;;;;;1.50;1.00;;;;;20.58;91.73;-19756.81;4993151;28;45454;-76
2022/10/21 08:35:24;;;;;;;;;1.00;1.00;;;;;20.64;90.83;-19758.53;4997939;27;45487;-76
2022/10/21 08:37:49;;;;;;;;;3.00;1.00;;;;;20.62;88.70;-19757.88;4994547;28;45459;-76
2022/10/21 08:40:16;;;;;;;;;3.00;1.75;;;;;20.43;90.62;-19753.06;4994744;28;45510;-77
2022/10/21 08:42:44;;;;;;;;;1.50;1.00;;;;;20.50;90.66;-19754.81;4994159;27;46894;-78
2022/10/21 08:45:19;;;;;;;;;2.00;1.00;;;;;20.59;90.86;-19757.22;4994246;28;45659;-77
2022/10/21 08:47:51;;;;;;;;;1.00;1.00;;;;;20.59;90.09;-19757.09;4994393;27;45596;-77
2022/10/21 08:50:28;;;;;;;;;4.00;1.25;;;;;20.90;89.51;-19765.22;4994646;27;45286;-77
2022/10/21 08:53:08;;;;;;;;;1.00;1.00;;;;;20.87;89.73;-19764.53;4993577;27;46110;-77
2022/10/21 08:55:39;;;;;;;;;1.00;1.00;;;;;20.91;89.39;-19765.34;4986909;28;45381;-77
2022/10/21 08:58:11;;;;;;;;;1.00;1.00;;;;;21.05;88.75;-19769.06;4973566;28;45394;-77
2022/10/21 09:00:44;;;;;;;;;2.00;2.00;;;;;21.17;88.34;-19772.13;4988140;28;45455;-76
2022/10/21 09:03:19;;;;;;;;;1.00;1.00;;;;;21.27;88.46;-19774.94;4976252;28;48502;-75
2022/10/21 09:05:47;;;;;;;;;1.50;1.50;;;;;21.39;87.89;-19778.00;4994045;28;45337;-76
2022/10/21 09:08:37;;;;;;;;;0.50;0.00;;;;;21.54;87.54;-19781.84;4993788;27;45283;-76
2022/10/21 09:11:08;;;;;;;;;1.00;1.00;;;;;21.76;87.33;-19787.56;4994196;27;45420;-77
2022/10/21 09:13:56;;;;;;;;;1.50;1.50;;;;;21.85;85.97;-19789.84;5011416;27;45482;-77
2022/10/21 09:16:44;;;;;;;;;1.00;1.00;;;;;21.99;85.13;-19793.56;4991141;27;45303;-77
2022/10/21 09:19:12;;;;;;;;;0.50;0.50;;;;;22.07;84.44;-19795.69;4991552;28;45492;-78
2022/10/21 09:21:47;;;;;;;;;0.75;0.75;;;;;21.96;83.98;-19792.78;4987134;28;45483;-79
2022/10/21 09:24:21;;;;;;;;;2.00;1.00;;;;;22.09;84.31;-19796.22;4990441;28;46254;-77
2022/10/21 09:26:50;;;;;;;;;1.25;1.25;;;;;22.14;83.69;-19797.56;4996720;27;45432;-77
2022/10/21 09:29:35;;;;;;;;;1.00;1.00;;;;;22.26;82.52;-19800.47;4982197;28;45846;-77
2022/10/21 09:32:16;;;;;;;;;1.50;1.00;;;;;22.45;83.03;-19805.53;4987104;27;45556;-77
2022/10/21 09:34:41;;;;;;;;;1.00;1.00;;;;;22.61;82.41;-19809.66;4984393;28;46401;-77
2022/10/21 09:37:16;;;;;;;;;2.00;1.00;;;;;22.79;81.29;-19814.19;4984856;28;45354;-79
2022/10/21 09:39:47;;;;;;;;;1.00;1.00;;;;;22.65;80.13;-19810.59;4985986;28;45608;-78
2022/10/21 09:42:12;;;;;;;;;3.00;1.00;;;;;23.06;79.69;-19821.22;5008303;27;45635;-80
2022/10/21 09:44:39;;;;;;;;;3.50;2.25;;;;;23.31;79.03;-19827.88;4975891;28;45913;-80
2022/10/21 09:47:23;;;;;;;;;2.75;1.50;;;;;24.08;78.13;-19847.78;4959284;28;45484;-79
2022/10/21 09:49:55;;;;;;;;;1.75;1.75;;;;;25.66;72.80;-19888.72;4978633;28;45524;-79
2022/10/21 09:52:24;;;;;;;;;2.00;2.00;;;;;26.00;67.78;-19897.47;4977025;28;45527;-79
2022/10/21 09:54:50;;;;;;;;;2.00;2.00;;;;;26.36;67.12;-19906.72;4976568;28;46117;-79
2022/10/21 09:57:41;;;;;;;;;2.25;1.50;;;;;25.22;68.66;-19877.22;4976578;27;45448;-80
2022/10/21 10:00:07;;;;;;;;;3.00;2.25;;;;;24.62;70.75;-19861.69;4981532;27;45343;-79
2022/10/21 10:02:36;;;;;;;;;2.00;2.00;;;;;24.70;72.68;-19863.81;4976816;27;45417;-79
2022/10/21 10:05:37;;;;;;;;;3.00;2.00;;;;;26.42;70.15;-19908.16;4976189;27;46311;-79
2022/10/21 10:08:21;;;;;;;;;1.00;1.00;;;;;28.16;63.79;-19953.19;4962732;28;45497;-79
2022/10/21 10:10:46;;;;;;;;;3.00;2.00;;;;;30.15;58.85;-20004.16;4976706;27;45380;-79
2022/10/21 10:13:18;;;;;;;;;1.00;1.00;;;;;31.50;54.06;-20039.00;4976518;27;45330;-78
2022/10/21 10:15:43;;;;;;;;;3.75;1.25;;;;;32.04;51.98;-20052.75;4959159;27;48349;-79
2022/10/21 10:18:20;;;;;;;;;1.50;1.50;;;;;33.11;49.98;-20080.03;4976730;27;45291;-78
2022/10/21 10:20:46;;;;;;;;;2.00;2.00;;;;;33.50;47.19;-20089.97;4976274;27;45553;-80
2022/10/21 10:23:18;;;;;;;;;2.00;2.00;;;;;34.07;46.80;-20104.59;4976636;28;45295;-79
2022/10/21 10:25:49;;;;;;;;;2.00;2.00;;;;;32.82;46.81;-20072.69;4979530;27;46182;-81
2022/10/21 10:28:23;;;;;;;;;3.25;2.00;;;;;31.15;49.26;-20029.81;4987607;28;45330;-81
2022/10/21 10:30:53;;;;;;;;;2.00;2.00;;;;;29.81;51.04;-19995.63;4999947;27;45398;-81
2022/10/21 10:33:31;;;;;;;;;1.00;1.00;;;;;28.65;53.84;-19965.59;4987182;27;45474;-81
2022/10/21 10:36:03;;;;;;;;;1.00;1.00;;;;;28.12;55.66;-19952.16;4995758;27;45588;-80
2022/10/21 10:38:34;;;;;;;;;2.00;2.00;;;;;27.61;56.55;-19938.81;4995655;27;45417;-80
2022/10/21 10:41:04;;;;;;;;;2.25;2.25;;;;;27.17;57.43;-19927.59;4994029;27;45369;-76
2022/10/21 10:43:32;;;;;;;;;3.00;2.00;;;;;27.67;58.15;-19940.41;4987054;27;45628;-84
2022/10/21 10:45:59;;;;;;;;;2.00;1.00;;;;;28.48;56.33;-19961.38;5010457;28;47778;-78
2022/10/21 10:48:39;;;;;;;;;6.00;2.00;;;;;28.44;54.58;-19960.31;5004771;27;45525;-76
2022/10/21 10:51:20;;;;;;;;;2.25;1.25;;;;;29.32;53.41;-19982.84;4995144;27;46582;-75
2022/10/21 10:54:16;;;;;;;;;2.00;1.00;;;;;31.42;49.42;-20036.91;4977863;27;45580;-78
2022/10/21 10:56:47;;;;;;;;;3.00;2.75;;;;;33.09;45.72;-20079.50;4999646;27;46412;-79
2022/10/21 10:59:29;;;;;;;;;3.50;3.00;;;;;33.35;44.14;-20086.16;5026242;27;45464;-78
2022/10/21 11:02:03;;;;;;;;;2.00;1.00;;;;;32.57;44.10;-20066.41;4993796;28;45627;-76
2022/10/21 11:04:53;;;;;;;;;2.50;2.50;;;;;32.72;44.62;-20070.06;5012589;27;45478;-76
2022/10/21 11:07:39;;;;;;;;;2.75;1.75;;;;;34.21;42.18;-20108.13;4997033;27;45417;-76
2022/10/21 11:10:26;;;;;;;;;1.00;1.00;;;;;34.27;40.72;-20109.69;5050532;27;46439;-77
2022/10/21 11:12:52;;;;;;;;;1.00;1.00;;;;;33.50;40.47;-20089.97;5027576;27;45448;-77
2022/10/21 11:15:25;;;;;;;;;1.25;1.25;;;;;32.91;42.25;-20075.03;5001354;27;45371;-76
2022/10/21 11:18:09;;;;;;;;;0.75;0.50;;;;;32.61;41.72;-20067.31;4990535;27;46470;-76
2022/10/21 11:20:45;;;;;;;;;0.00;0.00;;;;;32.00;42.00;-20051.59;5008309;27;45481;-76
2022/10/21 11:23:26;;;;;;;;;0.00;0.00;;;;;32.06;42.62;-20053.16;5029034;27;45486;-76
2022/10/21 11:26:01;;;;;;;;;1.75;1.75;;;;;31.94;42.46;-20050.13;5013166;28;45490;-77
2022/10/21 11:28:30;;;;;;;;;1.50;0.50;;;;;31.59;40.85;-19697.16;5024223;27;46365;-77
2022/10/21 11:31:10;;;;;;;;;1.00;1.00;;;;;31.04;42.38;-20025.16;5017144;28;45494;-76
2022/10/21 11:34:00;;;;;;;;;2.25;1.75;;;;;30.32;44.41;-20008.50;4992644;27;45554;-76